createdAt,value
2022-11-05T00:02:00.472Z,23.50
2022-11-05T00:04:30.764Z,23.49
2022-11-05T00:06:57.455Z,23.49
2022-11-05T00:09:23.783Z,23.48
2022-11-05T00:11:50.102Z,23.48
2022-11-05T00:14:16.418Z,23.47
2022-11-05T00:16:42.743Z,23.47
2022-11-05T00:19:09.087Z,23.44
2022-11-05T00:21:35.418Z,23.46
2022-11-05T00:24:01.739Z,23.45
2022-11-05T00:26:28.061Z,23.46
2022-11-05T00:28:54.393Z,23.45
2022-11-05T00:31:20.706Z,23.45
2022-11-05T00:33:47.024Z,23.44
2022-11-05T00:36:13.344Z,23.43
2022-11-05T00:38:39.671Z,23.43
2022-11-05T00:41:06.004Z,23.42
2022-11-05T00:43:32.350Z,23.43
2022-11-05T00:45:58.657Z,23.42
2022-11-05T00:48:24.977Z,23.42
2022-11-05T00:50:51.301Z,23.42
2022-11-05T00:53:17.720Z,23.40
2022-11-05T00:55:44.038Z,23.40
2022-11-05T00:58:10.377Z,23.40
2022-11-05T01:00:36.711Z,23.40
2022-11-05T01:03:03.040Z,23.41
2022-11-05T01:05:29.363Z,23.38
2022-11-05T01:07:55.687Z,23.38
2022-11-05T01:10:22.013Z,23.39
2022-11-05T01:12:48.335Z,23.39
2022-11-05T01:15:14.680Z,23.38
2022-11-05T01:17:40.996Z,23.38
2022-11-05T01:20:07.318Z,23.38
2022-11-05T01:22:33.644Z,23.40
2022-11-05T01:24:59.958Z,23.39
2022-11-05T01:27:26.285Z,23.38
2022-11-05T01:29:52.615Z,23.39
2022-11-05T01:32:18.944Z,23.39
2022-11-05T01:34:45.276Z,23.37
2022-11-05T01:37:11.607Z,23.36
2022-11-05T01:39:37.935Z,23.37
2022-11-05T01:42:04.267Z,23.36
2022-11-05T01:44:30.582Z,23.35
2022-11-05T01:46:56.914Z,23.34
2022-11-05T01:49:23.226Z,23.34
2022-11-05T01:51:49.549Z,23.34
2022-11-05T01:54:15.876Z,23.35
2022-11-05T01:56:42.195Z,23.34
2022-11-05T01:59:08.518Z,23.33
2022-11-05T02:01:34.925Z,23.33
2022-11-05T02:04:01.277Z,23.33
2022-11-05T02:06:27.610Z,23.31
2022-11-05T02:08:53.919Z,23.32
2022-11-05T02:11:20.252Z,23.32
2022-11-05T02:13:46.569Z,23.31
2022-11-05T02:16:12.894Z,23.31
2022-11-05T02:18:39.218Z,23.31
2022-11-05T02:21:05.532Z,23.31
2022-11-05T02:23:31.849Z,23.29
2022-11-05T02:25:58.163Z,23.29
2022-11-05T02:28:24.490Z,23.29
2022-11-05T02:30:50.873Z,23.30
2022-11-05T02:33:17.268Z,23.29
2022-11-05T02:35:43.665Z,23.30
2022-11-05T02:38:10.058Z,23.28
2022-11-05T02:40:36.461Z,23.28
2022-11-05T02:43:02.871Z,23.28
2022-11-05T02:45:29.260Z,23.28
2022-11-05T02:47:55.662Z,23.27
2022-11-05T02:50:22.070Z,23.27
2022-11-05T02:52:49.634Z,23.27
2022-11-05T02:55:16.027Z,23.26
2022-11-05T02:57:42.367Z,23.26
2022-11-05T03:00:08.695Z,23.26
2022-11-05T03:02:35.173Z,23.26
2022-11-05T03:05:01.574Z,23.26
2022-11-05T03:07:27.890Z,23.25
2022-11-05T03:09:54.215Z,23.24
2022-11-05T03:12:20.534Z,23.24
2022-11-05T03:14:46.855Z,23.22
2022-11-05T03:17:13.174Z,23.23
2022-11-05T03:19:39.499Z,23.24
2022-11-05T03:22:05.827Z,23.24
2022-11-05T03:24:32.150Z,23.24
2022-11-05T03:26:58.453Z,23.23
2022-11-05T03:29:24.777Z,23.22
2022-11-05T03:31:51.111Z,23.25
2022-11-05T03:34:17.443Z,23.24
2022-11-05T03:36:43.776Z,23.22
2022-11-05T03:39:10.115Z,23.23
2022-11-05T03:41:36.438Z,23.23
2022-11-05T03:44:02.759Z,23.21
2022-11-05T03:46:29.074Z,23.20
2022-11-05T03:48:55.448Z,23.22
2022-11-05T03:51:21.830Z,23.22
2022-11-05T03:53:48.138Z,23.19
2022-11-05T03:56:14.454Z,23.19
2022-11-05T03:58:40.766Z,23.20
2022-11-05T04:01:07.085Z,23.20
2022-11-05T04:03:33.418Z,23.20
2022-11-05T04:05:59.755Z,23.19
2022-11-05T04:08:26.086Z,23.21
2022-11-05T04:10:52.413Z,23.20
2022-11-05T04:13:18.746Z,23.19
2022-11-05T04:15:45.072Z,23.18
2022-11-05T04:18:11.387Z,23.18
2022-11-05T04:20:37.697Z,23.17
2022-11-05T04:23:04.011Z,23.18
2022-11-05T04:25:30.332Z,23.20
2022-11-05T04:27:56.660Z,23.19
2022-11-05T04:30:22.975Z,23.18
2022-11-05T04:32:49.290Z,23.19
2022-11-05T04:35:15.622Z,23.18
2022-11-05T04:37:41.936Z,23.17
2022-11-05T04:40:08.257Z,23.17
2022-11-05T04:42:34.591Z,23.15
2022-11-05T04:45:00.915Z,23.15
2022-11-05T04:47:27.270Z,23.14
2022-11-05T04:49:53.586Z,23.16
2022-11-05T04:52:19.906Z,23.16
2022-11-05T04:54:46.214Z,23.17
2022-11-05T04:57:12.530Z,23.16
2022-11-05T04:59:38.859Z,23.16
2022-11-05T05:02:05.232Z,23.16
2022-11-05T05:04:31.607Z,23.15
2022-11-05T05:06:57.918Z,23.15
2022-11-05T05:09:24.249Z,23.14
2022-11-05T05:11:50.566Z,23.15
2022-11-05T05:14:16.876Z,23.13
2022-11-05T05:16:43.185Z,23.14
2022-11-05T05:19:09.506Z,23.12
2022-11-05T05:21:35.823Z,23.12
2022-11-05T05:24:02.146Z,23.14
2022-11-05T05:26:28.465Z,23.15
2022-11-05T05:28:54.786Z,23.15
2022-11-05T05:31:21.105Z,23.17
2022-11-05T05:33:47.441Z,23.15
2022-11-05T05:36:13.758Z,23.13
2022-11-05T05:38:40.062Z,23.12
2022-11-05T05:41:06.392Z,23.11
2022-11-05T05:43:32.715Z,23.13
2022-11-05T05:45:59.092Z,23.12
2022-11-05T05:48:25.427Z,23.13
2022-11-05T05:50:51.758Z,23.13
2022-11-05T05:53:18.087Z,23.13
2022-11-05T05:55:44.397Z,23.12
2022-11-05T05:58:10.706Z,23.14
2022-11-05T06:00:37.058Z,23.14
2022-11-05T06:03:03.445Z,23.14
2022-11-05T06:05:29.842Z,23.13
2022-11-05T06:07:56.167Z,23.14
2022-11-05T06:10:22.528Z,23.15
2022-11-05T06:12:48.866Z,23.15
2022-11-05T06:15:15.178Z,23.15
2022-11-05T06:17:41.953Z,23.16
2022-11-05T06:20:08.281Z,23.14
2022-11-05T06:22:34.602Z,23.12
2022-11-05T06:25:00.934Z,23.14
2022-11-05T06:27:27.254Z,23.10
2022-11-05T06:29:53.606Z,23.13
2022-11-05T06:32:19.937Z,23.19
2022-11-05T06:34:46.454Z,23.17
2022-11-05T06:37:12.822Z,23.15
2022-11-05T06:39:39.154Z,23.15
2022-11-05T06:42:17.989Z,23.15
2022-11-05T06:44:45.219Z,23.11
2022-11-05T06:47:11.545Z,23.10
2022-11-05T06:49:37.874Z,23.10
2022-11-05T06:52:04.199Z,23.20
2022-11-05T06:54:30.718Z,23.31
2022-11-05T06:56:57.037Z,23.32
2022-11-05T06:59:23.365Z,23.30
2022-11-05T07:01:49.753Z,23.28
2022-11-05T07:04:16.103Z,23.28
2022-11-05T07:06:42.440Z,23.18
2022-11-05T07:09:08.765Z,23.17
2022-11-05T07:11:35.089Z,23.19
2022-11-05T07:14:01.425Z,23.19
2022-11-05T07:16:27.758Z,23.23
2022-11-05T07:18:54.085Z,23.21
2022-11-05T07:21:20.418Z,23.23
2022-11-05T07:23:46.753Z,23.22
2022-11-05T07:26:13.068Z,23.21
2022-11-05T07:28:39.386Z,23.20
2022-11-05T07:31:05.709Z,23.20
2022-11-05T07:33:36.370Z,23.15
2022-11-05T07:36:03.099Z,23.19
2022-11-05T07:38:29.422Z,23.21
2022-11-05T07:40:55.735Z,23.22
2022-11-05T07:43:22.075Z,23.20
2022-11-05T07:45:48.394Z,23.22
2022-11-05T07:48:14.718Z,23.22
2022-11-05T07:50:41.054Z,23.22
2022-11-05T07:53:07.388Z,23.23
2022-11-05T07:55:33.735Z,23.21
2022-11-05T07:58:00.054Z,23.22
2022-11-05T08:00:26.426Z,23.22
2022-11-05T08:02:52.995Z,23.22
2022-11-05T08:05:19.487Z,23.23
2022-11-05T08:07:45.807Z,23.22
2022-11-05T08:10:12.130Z,23.19
2022-11-05T08:12:38.462Z,23.21
2022-11-05T08:15:04.793Z,23.23
2022-11-05T08:17:31.123Z,23.21
2022-11-05T08:19:57.454Z,23.22
2022-11-05T08:22:23.779Z,23.20
2022-11-05T08:24:50.102Z,23.24
2022-11-05T08:27:16.431Z,23.26
2022-11-05T08:29:42.758Z,23.23
2022-11-05T08:32:09.099Z,23.20
2022-11-05T08:34:35.456Z,23.18
2022-11-05T08:37:01.789Z,23.14
2022-11-05T08:39:28.146Z,23.13
2022-11-05T08:41:54.485Z,23.13
2022-11-05T08:44:20.810Z,23.11
2022-11-05T08:46:47.156Z,23.09
2022-11-05T08:49:13.494Z,23.09
2022-11-05T08:51:39.827Z,23.08
2022-11-05T08:54:06.170Z,23.09
2022-11-05T08:56:32.508Z,23.07
2022-11-05T08:58:58.855Z,23.07
2022-11-05T09:01:25.269Z,23.06
2022-11-05T09:03:51.650Z,23.09
2022-11-05T09:06:17.981Z,23.09
2022-11-05T09:08:44.307Z,23.08
2022-11-05T09:11:10.627Z,23.10
2022-11-05T09:13:36.968Z,23.10
2022-11-05T09:16:03.294Z,23.10
2022-11-05T09:18:29.623Z,23.11
2022-11-05T09:20:55.956Z,23.10
2022-11-05T09:23:22.300Z,23.12
2022-11-05T09:25:48.633Z,23.12
2022-11-05T09:28:17.188Z,23.12
2022-11-05T09:30:43.822Z,23.13
2022-11-05T09:33:10.528Z,23.18
2022-11-05T09:35:37.083Z,23.17
2022-11-05T09:38:03.424Z,23.17
2022-11-05T09:40:29.770Z,23.24
2022-11-05T09:42:56.113Z,23.24
2022-11-05T09:45:22.443Z,23.23
2022-11-05T09:47:48.762Z,23.23
2022-11-05T09:50:15.087Z,23.22
2022-11-05T09:52:41.419Z,23.21
2022-11-05T09:55:07.742Z,23.19
2022-11-05T09:57:34.079Z,23.18
2022-11-05T10:00:00.535Z,23.18
2022-11-05T10:02:26.942Z,23.17
2022-11-05T10:04:53.394Z,23.17
2022-11-05T10:07:19.788Z,23.17
2022-11-05T10:09:46.102Z,23.18
2022-11-05T10:12:12.440Z,23.17
2022-11-05T10:14:38.798Z,23.16
2022-11-05T10:17:05.141Z,23.15
2022-11-05T10:19:31.463Z,23.16
2022-11-05T10:22:06.550Z,23.17
2022-11-05T10:24:33.354Z,23.17
2022-11-05T10:26:59.685Z,23.17
2022-11-05T10:29:26.058Z,23.16
2022-11-05T10:31:52.412Z,23.15
2022-11-05T10:34:18.779Z,23.16
2022-11-05T10:36:45.105Z,23.14
2022-11-05T10:39:11.425Z,23.11
2022-11-05T10:41:37.746Z,23.18
2022-11-05T10:44:04.078Z,23.15
2022-11-05T10:46:30.411Z,23.29
2022-11-05T10:48:56.741Z,23.34
2022-11-05T10:51:23.066Z,23.23
2022-11-05T10:53:49.400Z,23.17
2022-11-05T10:56:15.748Z,23.09
2022-11-05T10:58:42.080Z,23.16
2022-11-05T11:01:08.502Z,23.14
2022-11-05T11:03:34.869Z,23.23
2022-11-05T11:06:01.203Z,23.26
2022-11-05T11:08:27.538Z,23.26
2022-11-05T11:10:53.869Z,23.25
2022-11-05T11:13:20.203Z,23.24
2022-11-05T11:15:46.534Z,23.25
2022-11-05T11:18:12.859Z,23.21
2022-11-05T11:20:39.184Z,23.22
2022-11-05T11:23:05.523Z,23.23
2022-11-05T11:25:31.853Z,23.22
2022-11-05T11:27:58.185Z,23.21
2022-11-05T11:30:24.515Z,23.21
2022-11-05T11:32:50.835Z,23.21
2022-11-05T11:35:17.174Z,23.22
2022-11-05T11:37:43.533Z,23.20
2022-11-05T11:40:10.226Z,23.20
2022-11-05T11:42:36.655Z,23.20
2022-11-05T11:45:03.006Z,23.19
2022-11-05T11:47:29.359Z,23.18
2022-11-05T11:49:55.693Z,23.18
2022-11-05T11:52:22.019Z,23.18
2022-11-05T11:54:48.353Z,23.19
2022-11-05T11:57:15.274Z,23.18
2022-11-05T12:00:07.066Z,23.19
2022-11-05T12:02:28.014Z,23.19
2022-11-05T12:04:54.383Z,23.19
2022-11-05T12:07:20.717Z,23.19
2022-11-05T12:09:47.052Z,23.19
2022-11-05T12:12:13.371Z,23.19
2022-11-05T12:14:45.132Z,23.19
2022-11-05T12:17:12.690Z,23.20
2022-11-05T12:19:39.020Z,23.20
2022-11-05T12:22:05.336Z,23.21
2022-11-05T12:24:31.656Z,23.26
2022-11-05T12:26:57.993Z,23.33
2022-11-05T12:29:24.321Z,23.32
2022-11-05T12:31:50.666Z,23.26
2022-11-05T12:34:16.975Z,23.17
2022-11-05T12:36:43.302Z,23.10
2022-11-05T12:39:09.631Z,22.97
2022-11-05T12:41:35.948Z,23.00
2022-11-05T12:44:02.262Z,22.99
2022-11-05T12:46:28.590Z,22.99
2022-11-05T12:48:54.915Z,23.01
2022-11-05T12:51:21.246Z,23.03
2022-11-05T12:53:47.568Z,23.05
2022-11-05T12:56:13.885Z,23.10
2022-11-05T12:58:40.214Z,23.15
2022-11-05T13:01:06.559Z,23.18
2022-11-05T13:03:32.926Z,23.20
2022-11-05T13:06:04.633Z,23.22
2022-11-05T13:08:32.287Z,23.24
2022-11-05T13:10:58.614Z,23.26
2022-11-05T13:13:24.950Z,23.26
2022-11-05T13:15:51.269Z,23.26
2022-11-05T13:18:17.598Z,23.28
2022-11-05T13:20:43.910Z,23.29
2022-11-05T13:23:10.526Z,23.31
2022-11-05T13:25:37.013Z,23.30
2022-11-05T13:28:03.350Z,23.30
2022-11-05T13:30:29.683Z,23.29
2022-11-05T13:32:56.017Z,23.30
2022-11-05T13:35:22.367Z,23.32
2022-11-05T13:37:48.719Z,23.34
2022-11-05T13:40:15.067Z,23.37
2022-11-05T13:42:41.399Z,23.37
2022-11-05T13:45:07.749Z,23.38
2022-11-05T13:47:34.063Z,23.39
2022-11-05T13:50:00.394Z,23.39
2022-11-05T13:52:26.718Z,23.40
2022-11-05T13:54:53.053Z,23.41
2022-11-05T13:57:19.387Z,23.38
2022-11-05T13:59:45.704Z,23.40
2022-11-05T14:02:12.108Z,23.41
2022-11-05T14:04:38.516Z,23.42
2022-11-05T14:07:04.842Z,23.42
2022-11-05T14:09:31.172Z,23.42
2022-11-05T14:11:57.499Z,23.42
2022-11-05T14:14:23.839Z,23.43
2022-11-05T14:16:50.158Z,23.43
2022-11-05T14:19:16.483Z,23.42
2022-11-05T14:21:42.802Z,23.51
2022-11-05T14:24:09.146Z,23.42
2022-11-05T14:26:35.477Z,23.41
2022-11-05T14:29:01.805Z,23.34
2022-11-05T14:31:47.357Z,23.30
2022-11-05T14:34:14.416Z,23.25
2022-11-05T14:36:40.774Z,23.28
2022-11-05T14:39:07.083Z,23.24
2022-11-05T14:41:33.391Z,23.21
2022-11-05T14:43:59.728Z,23.18
2022-11-05T14:46:26.071Z,23.15
2022-11-05T14:48:52.398Z,23.16
2022-11-05T14:51:18.722Z,23.14
2022-11-05T14:53:45.050Z,23.13
2022-11-05T14:56:11.387Z,23.11
2022-11-05T14:58:37.713Z,23.08
2022-11-05T15:01:04.109Z,23.10
2022-11-05T15:03:30.522Z,23.10
2022-11-05T15:05:56.863Z,23.11
2022-11-05T15:08:23.181Z,23.09
2022-11-05T15:10:49.508Z,23.10
2022-11-05T15:13:15.847Z,23.09
2022-11-05T15:15:42.183Z,23.09
2022-11-05T15:18:08.514Z,23.04
2022-11-05T15:20:39.764Z,23.02
2022-11-05T15:23:06.611Z,22.98
2022-11-05T15:25:32.925Z,22.97
2022-11-05T15:27:59.250Z,22.97
2022-11-05T15:30:25.578Z,22.99
2022-11-05T15:32:51.910Z,23.00
2022-11-05T15:35:18.245Z,23.00
2022-11-05T15:37:50.300Z,22.98
2022-11-05T15:40:18.843Z,23.00
2022-11-05T15:42:45.171Z,23.01
2022-11-05T15:45:11.487Z,22.99
2022-11-05T15:47:37.813Z,23.00
2022-11-05T15:50:06.507Z,22.99
2022-11-05T15:52:35.014Z,22.97
2022-11-05T15:55:01.348Z,22.98
2022-11-05T15:57:27.907Z,22.92
2022-11-05T15:59:54.282Z,22.93
2022-11-05T16:02:20.667Z,22.95
2022-11-05T16:04:47.051Z,22.95
2022-11-05T16:07:13.378Z,22.88
2022-11-05T16:09:39.706Z,22.91
2022-11-05T16:12:06.031Z,22.93
2022-11-05T16:14:32.376Z,22.90
2022-11-05T16:16:58.703Z,22.92
2022-11-05T16:19:25.034Z,22.90
2022-11-05T16:21:51.373Z,22.98
2022-11-05T16:24:17.689Z,22.96
2022-11-05T16:29:30.338Z,22.99
2022-11-05T16:31:56.667Z,22.99
2022-11-05T16:34:23.002Z,23.02
2022-11-05T16:36:49.422Z,22.98
2022-11-05T16:39:15.785Z,23.01
2022-11-05T16:41:42.548Z,23.00
2022-11-05T16:44:08.894Z,22.98
2022-11-05T16:46:35.261Z,23.07
2022-11-05T16:49:01.597Z,23.03
2022-11-05T16:51:27.922Z,23.05
2022-11-05T16:53:54.256Z,23.07
2022-11-05T16:56:20.594Z,23.07
2022-11-05T16:58:46.925Z,23.07
2022-11-05T17:01:13.344Z,23.09
2022-11-05T17:03:39.718Z,23.09
2022-11-05T17:06:06.042Z,23.07
2022-11-05T17:08:32.380Z,23.07
2022-11-05T17:10:58.701Z,23.05
2022-11-05T17:13:25.036Z,23.07
2022-11-05T17:15:51.373Z,23.11
2022-11-05T17:18:19.216Z,23.12
2022-11-05T17:20:45.830Z,23.10
2022-11-05T17:23:12.420Z,23.11
2022-11-05T17:25:38.992Z,23.10
2022-11-05T17:28:05.330Z,23.12
2022-11-05T17:30:31.657Z,23.13
2022-11-05T17:32:58.058Z,23.14
2022-11-05T17:35:24.462Z,23.15
2022-11-05T17:37:50.787Z,23.13
2022-11-05T17:40:17.110Z,23.14
2022-11-05T17:42:43.430Z,23.13
2022-11-05T17:45:09.788Z,23.12
2022-11-05T17:47:37.012Z,23.11
2022-11-05T17:50:03.367Z,23.11
2022-11-05T17:52:29.695Z,23.11
2022-11-05T17:54:56.023Z,23.11
2022-11-05T17:57:22.362Z,23.12
2022-11-05T17:59:48.713Z,23.13
2022-11-05T18:02:15.143Z,23.11
2022-11-05T18:04:41.550Z,23.13
2022-11-05T18:07:07.883Z,23.13
2022-11-05T18:09:34.197Z,23.12
2022-11-05T18:12:00.519Z,23.12
2022-11-05T18:14:26.843Z,23.10
2022-11-05T18:16:53.178Z,23.09
2022-11-05T18:19:19.520Z,23.14
2022-11-05T18:21:45.863Z,23.12
2022-11-05T18:24:12.199Z,23.16
2022-11-05T18:26:38.535Z,23.13
2022-11-05T18:29:04.855Z,23.11
2022-11-05T18:31:31.184Z,23.14
2022-11-05T18:33:57.501Z,23.12
2022-11-05T18:36:23.826Z,23.11
2022-11-05T18:38:50.152Z,23.07
2022-11-05T18:41:16.479Z,23.12
2022-11-05T18:43:42.811Z,23.12
2022-11-05T18:46:12.930Z,23.11
2022-11-05T18:48:45.763Z,23.08
2022-11-05T18:51:12.098Z,23.05
2022-11-05T18:53:38.429Z,23.07
2022-11-05T18:56:04.754Z,23.11
2022-11-05T18:58:31.082Z,23.15
2022-11-05T19:01:00.171Z,23.18
2022-11-05T19:03:28.879Z,23.19
2022-11-05T19:05:55.238Z,23.21
2022-11-05T19:08:21.566Z,23.21
2022-11-05T19:10:47.890Z,23.22
2022-11-05T19:13:14.239Z,23.23
2022-11-05T19:15:40.558Z,23.23
2022-11-05T19:18:06.890Z,23.23
2022-11-05T19:20:37.647Z,23.19
2022-11-05T19:23:04.317Z,23.19
2022-11-05T19:25:30.654Z,23.15
2022-11-05T19:27:56.993Z,23.20
2022-11-05T19:30:23.338Z,23.25
2022-11-05T19:32:49.684Z,23.24
2022-11-05T19:35:16.024Z,23.24
2022-11-05T19:37:42.358Z,23.22
2022-11-05T19:40:08.695Z,23.20
2022-11-05T19:42:35.021Z,23.17
2022-11-05T19:45:22.975Z,23.16
2022-11-05T19:47:47.663Z,23.11
2022-11-05T19:50:13.998Z,23.07
2022-11-05T19:52:40.335Z,23.06
2022-11-05T19:55:11.869Z,23.04
2022-11-05T19:57:38.530Z,23.02
2022-11-05T20:00:04.855Z,22.98
2022-11-05T20:02:31.363Z,22.98
2022-11-05T20:04:57.819Z,22.96
2022-11-05T20:07:24.156Z,22.92
2022-11-05T20:09:50.482Z,22.91
2022-11-05T20:12:16.810Z,22.92
2022-11-05T20:14:43.160Z,22.91
2022-11-05T20:17:09.478Z,22.93
2022-11-05T20:19:35.811Z,22.92
2022-11-05T20:22:02.148Z,22.94
2022-11-05T20:24:28.483Z,22.93
2022-11-05T20:26:54.819Z,22.95
2022-11-05T20:29:21.155Z,22.91
2022-11-05T20:31:47.475Z,22.93
2022-11-05T20:34:13.796Z,22.94
2022-11-05T20:36:40.131Z,22.93
2022-11-05T20:39:06.453Z,22.93
2022-11-05T20:41:32.778Z,22.94
2022-11-05T20:43:59.103Z,22.92
2022-11-05T20:46:25.434Z,22.93
2022-11-05T20:48:51.780Z,22.92
2022-11-05T20:51:18.093Z,22.96
2022-11-05T20:53:44.423Z,22.97
2022-11-05T20:56:10.783Z,22.95
2022-11-05T20:58:37.133Z,22.90
2022-11-05T21:01:03.466Z,22.91
2022-11-05T21:03:29.789Z,22.86
2022-11-05T21:05:56.120Z,22.78
2022-11-05T21:08:22.450Z,22.74
2022-11-05T21:10:51.400Z,22.73
2022-11-05T21:13:17.921Z,22.73
2022-11-05T21:15:44.247Z,22.72
2022-11-05T21:18:10.840Z,22.70
2022-11-05T21:20:37.351Z,22.70
2022-11-05T21:23:03.669Z,22.77
2022-11-05T21:25:29.990Z,22.98
2022-11-05T21:27:56.312Z,23.20
2022-11-05T21:30:22.631Z,23.27
2022-11-05T21:32:48.945Z,23.28
2022-11-05T21:35:15.266Z,23.30
2022-11-05T21:37:41.595Z,23.26
2022-11-05T21:40:07.924Z,23.27
2022-11-05T21:42:34.250Z,23.26
2022-11-05T21:45:00.856Z,23.29
2022-11-05T21:47:27.240Z,23.24
2022-11-05T21:49:53.573Z,23.26
2022-11-05T21:52:19.902Z,23.25
2022-11-05T21:54:46.259Z,23.21
2022-11-05T21:57:12.585Z,23.24
2022-11-05T21:59:38.923Z,23.26
2022-11-05T22:02:05.375Z,23.23
2022-11-05T22:04:31.802Z,23.24
2022-11-05T22:06:58.134Z,23.24
2022-11-05T22:09:24.461Z,23.25
2022-11-05T22:11:50.789Z,23.24
2022-11-05T22:14:17.118Z,23.23
2022-11-05T22:16:43.444Z,23.11
2022-11-05T22:19:09.774Z,23.37
2022-11-05T22:21:36.114Z,23.22
2022-11-05T22:24:02.455Z,23.12
2022-11-05T22:26:28.799Z,22.85
2022-11-05T22:28:55.126Z,22.73
2022-11-05T22:31:21.452Z,22.72
2022-11-05T22:33:47.786Z,22.72
2022-11-05T22:36:14.127Z,22.72
2022-11-05T22:38:40.482Z,22.73
2022-11-05T22:41:06.807Z,22.72
2022-11-05T22:43:33.141Z,22.72
2022-11-05T22:45:59.468Z,22.76
2022-11-05T22:48:25.792Z,22.80
2022-11-05T22:50:52.121Z,22.78
2022-11-05T22:53:18.443Z,22.79
2022-11-05T22:55:44.775Z,22.76
2022-11-05T22:58:11.355Z,22.77
2022-11-05T23:00:37.856Z,22.77
2022-11-05T23:03:04.483Z,22.80
2022-11-05T23:05:30.926Z,22.82
2022-11-05T23:07:57.251Z,22.79
2022-11-05T23:10:23.573Z,22.79
2022-11-05T23:12:49.893Z,22.79
2022-11-05T23:15:16.213Z,22.77
2022-11-05T23:17:43.134Z,22.80
2022-11-05T23:20:09.454Z,22.81
2022-11-05T23:22:35.779Z,22.80
2022-11-05T23:25:02.097Z,22.79
2022-11-05T23:27:28.429Z,22.83
2022-11-05T23:29:54.767Z,22.83
2022-11-05T23:32:21.090Z,22.83
2022-11-05T23:34:47.404Z,22.82
2022-11-05T23:37:13.733Z,22.83
2022-11-05T23:39:42.841Z,22.83
2022-11-05T23:42:09.407Z,22.85
2022-11-05T23:44:35.736Z,22.83
2022-11-05T23:47:02.068Z,22.80
2022-11-05T23:49:28.392Z,22.80
2022-11-05T23:51:54.724Z,22.83
2022-11-05T23:54:21.051Z,22.83
2022-11-05T23:56:47.388Z,22.82
2022-11-05T23:59:13.707Z,22.82
